Skip Navigation Links Skip Navigation Links

Current Weather

Rosecrans Memorial, St Joseph, Mo.

For information only: do not use for flight planning or navigation.
Latest weather
Observation time Monday, October 18, 2021 1:53 PM CDT
Local time Monday, October 18, 2021 2:55 PM CDT
Flight conditions Visual Meteorological Conditions
Winds
Wind direction South (170°)
Wind speed 15 mph
Wind gusting to 28 mph
Visibility 10 mi.
Sky condition
Ceiling unlimited
Sky clear
Temperature 74°F
Dewpoint 43°F
Altimeter 30.03 in.Hg
Derived measurements
Relative humidity 33%
Density altitude 1806 ft.
Sea-level pressure 30.03 in.Hg
Remarks
Automated weather observing station with precipitation discriminator.
METAR KSTJ 181853Z 17013G24KT 10SM CLR 23/06 A3003 RMK AO2 SLP168 T02330061

Settings

Location code

InnerDrive.Weather 4.0.6770.0 Release CLR 4.0.30319.42000
Copyright ©2018 Inner Drive Technology. All rights reserved. Portions Copyright ©1986-2018 David Braverman.

Find weather

Site navigation


Skip Navigation Links

Place info

Page info

PayPal - The safer, easier way to pay online!

Return home.

Copyright ©2021 Inner Drive Technology. Purveyors of fine, hand-crafted computer software. Page printed 2021-10-18T19:55:41 UTC.